Time;durP1;ratioP1;P1;durP2;ratioP2;P2;SDS_P1;SDS_P2;PMS_P1;PMS_P2;Temp;Humidity;BMP_temperature;BMP_pressure;BME280_temperature;BME280_humidity;BME280_pressure;Samples;Min_cycle;Max_cycle;Signal;HPM_P1;HPM_P2
2022/07/08 00:01:27;;;;;;;;;;;14.20;99.90;;;;;;5147052;27;20300;-76
2022/07/08 00:03:52;;;;;;;;;;;14.10;99.90;;;;;;5148101;27;19922;-77
2022/07/08 00:06:18;;;;;;;;;;;14.10;99.90;;;;;;5149281;27;20347;-76
2022/07/08 00:08:44;;;;;;;;;;;14.10;99.90;;;;;;5149488;27;19929;-76
2022/07/08 00:11:10;;;;;;;;;;;14.00;99.90;;;;;;5166763;27;20382;-76
2022/07/08 00:13:36;;;;;;;;;;;14.00;99.90;;;;;;5162705;27;19942;-76
2022/07/08 00:16:01;;;;;;;;;;;13.90;99.90;;;;;;5154856;27;19919;-77
2022/07/08 00:18:27;;;;;;;;;;;13.90;99.90;;;;;;5159678;27;19931;-76
2022/07/08 00:20:52;;;;;;;;;;;13.90;99.90;;;;;;5142478;27;20422;-77
2022/07/08 00:23:18;;;;;;;;;;;13.80;99.90;;;;;;5139269;27;19935;-77
2022/07/08 00:25:43;;;;;;;;;;;13.80;99.90;;;;;;5144417;27;19938;-77
2022/07/08 00:28:09;;;;;;;;;;;13.70;99.90;;;;;;5155131;27;20586;-76
2022/07/08 00:30:34;;;;;;;;;;;13.70;99.90;;;;;;5152907;27;19923;-76
2022/07/08 00:33:00;;;;;;;;;;;13.60;99.90;;;;;;5132116;27;19931;-76
2022/07/08 00:35:25;;;;;;;;;;;13.60;99.90;;;;;;5136526;27;20290;-76
2022/07/08 00:37:53;;;;;;;;;;;13.50;99.90;;;;;;5140059;27;19923;-76
2022/07/08 00:40:19;;;;;;;;;;;13.40;99.90;;;;;;5141636;27;20334;-76
2022/07/08 00:42:48;;;;;;;;;;;13.40;99.90;;;;;;5138630;27;20010;-76
2022/07/08 00:45:13;;;;;;;;;;;13.40;99.90;;;;;;5148186;27;20251;-76
2022/07/08 00:47:39;;;;;;;;;;;13.30;99.90;;;;;;5148381;27;20427;-76
2022/07/08 00:50:05;;;;;;;;;;;13.30;99.90;;;;;;5164515;27;19923;-76
2022/07/08 00:52:31;;;;;;;;;;;13.30;99.90;;;;;;5166186;27;19927;-77
2022/07/08 00:54:56;;;;;;;;;;;13.20;99.90;;;;;;5168230;27;20453;-77
2022/07/08 00:57:22;;;;;;;;;;;13.20;99.90;;;;;;5165012;27;20006;-76
2022/07/08 00:59:48;;;;;;;;;;;13.10;99.90;;;;;;5168824;27;20397;-76
2022/07/08 01:02:13;;;;;;;;;;;13.10;99.90;;;;;;5163820;27;19924;-76
2022/07/08 01:04:39;;;;;;;;;;;13.00;99.90;;;;;;5147808;27;19966;-76
2022/07/08 01:07:05;;;;;;;;;;;13.00;99.90;;;;;;5166479;27;20382;-77
2022/07/08 01:09:31;;;;;;;;;;;13.00;99.90;;;;;;5148550;27;19952;-76
2022/07/08 01:11:56;;;;;;;;;;;12.90;99.90;;;;;;5145766;27;19926;-76
2022/07/08 01:14:22;;;;;;;;;;;12.90;99.90;;;;;;5149630;27;19947;-76
2022/07/08 01:16:47;;;;;;;;;;;13.00;99.90;;;;;;5165193;27;19977;-76
2022/07/08 01:19:13;;;;;;;;;;;12.90;99.90;;;;;;5167321;27;19930;-76
2022/07/08 01:21:38;;;;;;;;;;;12.80;99.90;;;;;;5145775;27;19923;-76
2022/07/08 01:24:04;;;;;;;;;;;12.70;99.90;;;;;;5147191;27;20032;-78
2022/07/08 01:26:29;;;;;;;;;;;12.70;99.90;;;;;;5166010;27;19966;-76
2022/07/08 01:28:55;;;;;;;;;;;12.70;99.90;;;;;;5167238;27;19929;-76
2022/07/08 01:31:20;;;;;;;;;;;12.70;99.90;;;;;;5146229;27;20286;-77
2022/07/08 01:33:46;;;;;;;;;;;12.60;99.90;;;;;;5167512;27;20366;-76
2022/07/08 01:36:11;;;;;;;;;;;12.60;99.90;;;;;;5145682;27;19923;-76
2022/07/08 01:38:37;;;;;;;;;;;12.60;99.90;;;;;;5148278;27;19927;-77
2022/07/08 01:41:03;;;;;;;;;;;12.50;99.90;;;;;;5147068;27;19929;-76
2022/07/08 01:43:29;;;;;;;;;;;12.60;99.90;;;;;;5166314;27;19977;-77
2022/07/08 01:45:54;;;;;;;;;;;12.50;99.90;;;;;;5165733;27;19965;-76
2022/07/08 01:48:20;;;;;;;;;;;12.50;99.90;;;;;;5164660;27;19923;-76
2022/07/08 01:50:45;;;;;;;;;;;12.70;99.90;;;;;;5164422;27;19923;-76
2022/07/08 01:53:12;;;;;;;;;;;12.50;99.90;;;;;;5147964;27;19933;-77
2022/07/08 01:55:38;;;;;;;;;;;12.40;99.90;;;;;;5164885;27;20286;-76
2022/07/08 01:58:03;;;;;;;;;;;12.50;99.90;;;;;;5166476;27;19972;-77
2022/07/08 02:00:29;;;;;;;;;;;12.40;99.90;;;;;;5146254;27;19923;-77
2022/07/08 02:02:54;;;;;;;;;;;12.40;99.90;;;;;;5146620;27;19923;-76
2022/07/08 02:05:19;;;;;;;;;;;12.40;99.90;;;;;;5165176;27;20365;-77
2022/07/08 02:07:45;;;;;;;;;;;12.40;99.90;;;;;;5163895;27;19923;-77
2022/07/08 02:10:11;;;;;;;;;;;12.40;99.90;;;;;;5167068;27;19933;-77
2022/07/08 02:12:37;;;;;;;;;;;12.40;99.90;;;;;;5164000;27;19929;-77
2022/07/08 02:15:04;;;;;;;;;;;12.40;99.90;;;;;;5162693;27;19975;-77
2022/07/08 02:17:30;;;;;;;;;;;12.40;99.90;;;;;;5145568;27;19919;-76
2022/07/08 02:19:56;;;;;;;;;;;12.50;99.90;;;;;;5146632;27;19930;-76
2022/07/08 02:22:22;;;;;;;;;;;12.40;99.90;;;;;;5165155;27;20276;-76
2022/07/08 02:24:47;;;;;;;;;;;12.40;99.90;;;;;;5163338;27;19923;-76
2022/07/08 02:27:13;;;;;;;;;;;12.40;99.90;;;;;;5148003;27;20365;-76
2022/07/08 02:29:38;;;;;;;;;;;12.40;99.90;;;;;;5144204;27;19927;-76
2022/07/08 02:32:04;;;;;;;;;;;12.70;99.90;;;;;;5167248;27;19923;-76
2022/07/08 02:34:30;;;;;;;;;;;12.40;99.90;;;;;;5145015;27;20393;-76
2022/07/08 02:36:55;;;;;;;;;;;12.40;99.90;;;;;;5146257;27;20000;-76
2022/07/08 02:39:21;;;;;;;;;;;12.40;99.90;;;;;;5142902;27;19931;-76
2022/07/08 02:41:47;;;;;;;;;;;12.50;99.90;;;;;;5164692;27;20388;-76
2022/07/08 02:44:12;;;;;;;;;;;12.40;99.90;;;;;;5146815;27;19991;-77
2022/07/08 02:46:38;;;;;;;;;;;12.40;99.90;;;;;;5145071;27;19923;-77
2022/07/08 02:49:04;;;;;;;;;;;12.50;99.90;;;;;;5165698;27;20361;-76
2022/07/08 02:51:29;;;;;;;;;;;12.50;99.90;;;;;;5163253;27;20022;-76
2022/07/08 02:53:55;;;;;;;;;;;12.50;99.90;;;;;;5162227;27;19975;-77
2022/07/08 02:56:20;;;;;;;;;;;12.50;99.90;;;;;;5146008;27;19933;-77
2022/07/08 02:58:46;;;;;;;;;;;12.60;99.90;;;;;;5146289;27;20301;-77
2022/07/08 03:01:12;;;;;;;;;;;12.60;99.90;;;;;;5163990;27;20285;-77
2022/07/08 03:03:37;;;;;;;;;;;12.60;99.90;;;;;;5163113;27;20013;-76
2022/07/08 03:06:03;;;;;;;;;;;12.60;99.90;;;;;;5166047;27;20277;-76
2022/07/08 03:08:28;;;;;;;;;;;12.70;99.90;;;;;;5156915;27;19923;-76
2022/07/08 03:10:54;;;;;;;;;;;12.70;99.90;;;;;;5164834;27;19923;-77
2022/07/08 03:13:19;;;;;;;;;;;12.90;99.90;;;;;;5163810;27;19929;-76
2022/07/08 03:15:45;;;;;;;;;;;12.90;99.90;;;;;;5164199;27;20263;-77
2022/07/08 03:18:10;;;;;;;;;;;13.00;99.90;;;;;;5142238;27;20436;-77
2022/07/08 03:20:36;;;;;;;;;;;13.10;99.90;;;;;;5157014;27;20009;-84
2022/07/08 03:23:01;;;;;;;;;;;13.10;99.90;;;;;;5160581;27;19989;-72
2022/07/08 03:25:29;;;;;;;;;;;13.20;99.90;;;;;;5146750;27;19922;-75
2022/07/08 03:27:55;;;;;;;;;;;13.50;99.90;;;;;;5144008;27;19919;-71
2022/07/08 03:30:20;;;;;;;;;;;13.30;99.90;;;;;;5164802;27;20018;-73
2022/07/08 03:32:46;;;;;;;;;;;13.60;99.90;;;;;;5145629;27;19934;-73
2022/07/08 03:35:11;;;;;;;;;;;13.50;99.90;;;;;;5145246;27;19927;-77
2022/07/08 03:37:40;;;;;;;;;;;13.80;99.90;;;;;;5144524;27;20394;-76
2022/07/08 03:42:50;;;;;;;;;;;13.70;99.90;;;;;;5147012;27;19923;-77
2022/07/08 03:45:16;;;;;;;;;;;13.70;99.90;;;;;;5142972;27;20293;-74
2022/07/08 03:47:41;;;;;;;;;;;13.80;99.90;;;;;;5163577;27;19927;-72
2022/07/08 03:50:08;;;;;;;;;;;13.80;99.90;;;;;;5163636;27;19975;-75
2022/07/08 03:52:33;;;;;;;;;;;13.90;99.90;;;;;;5164119;27;19930;-76
2022/07/08 03:54:59;;;;;;;;;;;13.90;99.90;;;;;;5162505;27;19923;-75
2022/07/08 03:57:24;;;;;;;;;;;14.00;99.90;;;;;;5143906;27;19922;-76
2022/07/08 03:59:50;;;;;;;;;;;14.00;99.90;;;;;;5139045;27;19923;-75
2022/07/08 04:02:16;;;;;;;;;;;14.10;99.90;;;;;;5165308;27;19922;-75
2022/07/08 04:04:41;;;;;;;;;;;14.20;99.90;;;;;;5143654;27;19933;-75
2022/07/08 04:07:07;;;;;;;;;;;14.20;99.90;;;;;;5163471;27;19923;-75
2022/07/08 04:09:32;;;;;;;;;;;14.30;99.90;;;;;;5145778;27;19969;-75
2022/07/08 04:11:58;;;;;;;;;;;14.30;99.90;;;;;;5162428;27;19924;-75
2022/07/08 04:14:23;;;;;;;;;;;14.40;99.90;;;;;;5141600;27;19937;-75
2022/07/08 04:16:49;;;;;;;;;;;14.40;99.90;;;;;;5165484;27;19922;-75
2022/07/08 04:19:14;;;;;;;;;;;14.40;99.90;;;;;;5143247;27;19923;-75
2022/07/08 04:21:40;;;;;;;;;;;14.50;99.90;;;;;;5164191;27;19981;-75
2022/07/08 04:24:06;;;;;;;;;;;14.50;99.90;;;;;;5144643;27;20017;-75
2022/07/08 04:26:31;;;;;;;;;;;14.50;99.90;;;;;;5144827;27;19933;-75
2022/07/08 04:29:00;;;;;;;;;;;14.60;99.90;;;;;;5163439;27;19926;-75
2022/07/08 04:31:26;;;;;;;;;;;14.60;99.90;;;;;;5162517;27;19951;-75
2022/07/08 04:33:53;;;;;;;;;;;14.70;99.90;;;;;;5164414;27;20367;-75
2022/07/08 04:36:19;;;;;;;;;;;14.80;99.90;;;;;;5161510;27;19933;-75
2022/07/08 04:38:45;;;;;;;;;;;14.80;99.90;;;;;;5161894;27;19927;-75
2022/07/08 04:41:10;;;;;;;;;;;14.80;99.90;;;;;;5161215;27;19951;-75
2022/07/08 04:43:36;;;;;;;;;;;14.90;99.90;;;;;;5145167;27;19923;-75
2022/07/08 04:46:01;;;;;;;;;;;14.90;99.90;;;;;;5163015;27;19923;-75
2022/07/08 04:48:27;;;;;;;;;;;14.90;99.90;;;;;;5145868;27;19923;-75
2022/07/08 04:50:53;;;;;;;;;;;15.00;99.90;;;;;;5167344;27;19923;-75
2022/07/08 04:53:18;;;;;;;;;;;15.00;99.90;;;;;;5165592;27;19981;-75
2022/07/08 04:55:43;;;;;;;;;;;15.10;99.90;;;;;;5166488;27;20396;-75
2022/07/08 04:58:09;;;;;;;;;;;15.10;99.90;;;;;;5168478;27;19943;-75
2022/07/08 05:00:34;;;;;;;;;;;15.20;99.90;;;;;;5147319;27;19923;-75
2022/07/08 05:03:02;;;;;;;;;;;15.20;99.90;;;;;;5166208;27;19919;-75
2022/07/08 05:05:30;;;;;;;;;;;15.30;99.90;;;;;;5147891;27;19927;-75
2022/07/08 05:08:01;;;;;;;;;;;15.30;99.90;;;;;;5145438;27;19931;-75
2022/07/08 05:10:30;;;;;;;;;;;15.40;99.90;;;;;;5147904;27;20286;-75
2022/07/08 05:12:56;;;;;;;;;;;15.40;99.90;;;;;;5147513;27;19922;-74
2022/07/08 05:15:26;;;;;;;;;;;15.50;99.90;;;;;;5147651;27;19919;-75
2022/07/08 05:17:52;;;;;;;;;;;15.60;99.90;;;;;;5165845;27;19926;-75
2022/07/08 05:20:18;;;;;;;;;;;15.70;99.90;;;;;;5146243;27;19923;-75
2022/07/08 05:22:44;;;;;;;;;;;15.70;99.90;;;;;;5163268;27;19994;-75
2022/07/08 05:25:10;;;;;;;;;;;15.80;99.90;;;;;;5145462;27;19927;-75
2022/07/08 05:27:39;;;;;;;;;;;15.80;99.90;;;;;;5150129;27;19963;-75
2022/07/08 05:30:05;;;;;;;;;;;15.80;99.90;;;;;;5141430;27;19923;-75
2022/07/08 05:32:31;;;;;;;;;;;15.90;99.90;;;;;;5148824;27;19922;-75
2022/07/08 05:34:57;;;;;;;;;;;16.00;99.90;;;;;;5165223;27;19930;-75
2022/07/08 05:37:22;;;;;;;;;;;16.30;99.90;;;;;;5161910;27;19968;-75
2022/07/08 05:39:48;;;;;;;;;;;16.20;99.90;;;;;;5147769;27;19968;-75
2022/07/08 05:42:13;;;;;;;;;;;16.20;99.90;;;;;;5164753;27;20077;-75
2022/07/08 05:44:39;;;;;;;;;;;16.30;99.90;;;;;;5148620;27;20021;-75
2022/07/08 05:47:07;;;;;;;;;;;16.30;99.90;;;;;;5144793;27;19975;-74
2022/07/08 05:49:33;;;;;;;;;;;16.50;99.90;;;;;;5141488;27;19923;-75
2022/07/08 05:51:58;;;;;;;;;;;16.60;99.90;;;;;;5147741;27;19966;-75
2022/07/08 05:54:24;;;;;;;;;;;16.80;99.90;;;;;;5164904;27;19922;-75
2022/07/08 05:56:49;;;;;;;;;;;16.90;99.90;;;;;;5165727;27;20370;-74
2022/07/08 05:59:15;;;;;;;;;;;17.00;99.90;;;;;;5145374;27;19923;-81
2022/07/08 06:01:40;;;;;;;;;;;17.10;99.90;;;;;;5165118;27;19931;-80
2022/07/08 06:04:06;;;;;;;;;;;17.20;99.90;;;;;;5143226;27;20841;-76
2022/07/08 06:06:32;;;;;;;;;;;17.40;99.90;;;;;;5145087;27;19937;-73
2022/07/08 06:08:57;;;;;;;;;;;17.50;99.90;;;;;;5148740;27;20369;-75
2022/07/08 06:11:23;;;;;;;;;;;17.60;99.90;;;;;;5145448;27;20366;-75
2022/07/08 06:13:49;;;;;;;;;;;17.70;99.90;;;;;;5165476;27;19968;-79
2022/07/08 06:16:15;;;;;;;;;;;17.70;99.90;;;;;;5146888;27;19922;-75
2022/07/08 06:18:41;;;;;;;;;;;17.90;99.90;;;;;;5146279;27;19927;-76
2022/07/08 06:21:06;;;;;;;;;;;17.90;99.90;;;;;;5162844;27;19919;-77
2022/07/08 06:23:34;;;;;;;;;;;18.00;99.90;;;;;;5167044;27;19934;-76
2022/07/08 06:26:00;;;;;;;;;;;18.10;99.90;;;;;;5144682;27;20014;-77
2022/07/08 06:28:25;;;;;;;;;;;18.20;99.90;;;;;;5166432;27;19997;-76
2022/07/08 06:30:51;;;;;;;;;;;18.40;99.90;;;;;;5163844;27;19927;-77
2022/07/08 06:33:16;;;;;;;;;;;18.40;99.90;;;;;;5144335;27;19924;-76
2022/07/08 06:35:42;;;;;;;;;;;18.50;99.90;;;;;;5145875;27;19923;-76
2022/07/08 06:38:07;;;;;;;;;;;18.50;99.90;;;;;;5146530;27;19930;-76
2022/07/08 06:40:33;;;;;;;;;;;18.60;99.90;;;;;;5163814;27;19923;-76
2022/07/08 06:42:59;;;;;;;;;;;18.70;99.90;;;;;;5146766;27;20369;-74
2022/07/08 06:45:24;;;;;;;;;;;18.60;99.90;;;;;;5163528;27;19969;-79
2022/07/08 06:47:50;;;;;;;;;;;18.80;99.90;;;;;;5165476;27;19922;-78
2022/07/08 06:50:15;;;;;;;;;;;18.80;99.90;;;;;;5162915;27;19927;-82
2022/07/08 06:52:41;;;;;;;;;;;18.70;99.90;;;;;;5163825;27;20022;-78
2022/07/08 06:55:06;;;;;;;;;;;18.80;99.90;;;;;;5140910;27;19930;-80
2022/07/08 06:57:32;;;;;;;;;;;18.80;99.90;;;;;;5139741;27;20404;-75
2022/07/08 06:59:57;;;;;;;;;;;18.90;99.90;;;;;;5161127;27;19922;-76
2022/07/08 07:02:24;;;;;;;;;;;18.90;99.90;;;;;;5146606;27;20021;-75
2022/07/08 07:04:50;;;;;;;;;;;18.80;99.90;;;;;;5139793;27;19996;-75
2022/07/08 07:07:15;;;;;;;;;;;18.70;99.90;;;;;;5144000;27;19935;-75
2022/07/08 07:09:41;;;;;;;;;;;19.00;99.90;;;;;;5146081;27;19933;-75
2022/07/08 07:12:07;;;;;;;;;;;18.90;99.90;;;;;;5141125;27;19923;-75
2022/07/08 07:14:33;;;;;;;;;;;18.90;99.90;;;;;;5160240;27;20010;-74
2022/07/08 07:16:59;;;;;;;;;;;18.80;99.90;;;;;;5141166;27;19967;-75
2022/07/08 07:19:24;;;;;;;;;;;18.80;99.90;;;;;;5161468;27;19923;-76
2022/07/08 07:21:50;;;;;;;;;;;18.80;99.90;;;;;;5168295;27;20013;-75
2022/07/08 07:24:15;;;;;;;;;;;19.00;99.90;;;;;;5164340;27;19967;-74
2022/07/08 07:26:41;;;;;;;;;;;19.30;99.90;;;;;;5145323;27;20374;-77
2022/07/08 07:29:07;;;;;;;;;;;19.20;99.90;;;;;;5145885;27;19926;-75
2022/07/08 07:31:33;;;;;;;;;;;19.30;99.90;;;;;;5163441;27;19975;-74
2022/07/08 07:33:58;;;;;;;;;;;19.40;99.90;;;;;;5142829;27;19926;-74
2022/07/08 07:36:24;;;;;;;;;;;19.60;99.90;;;;;;5163132;27;19968;-73
2022/07/08 07:38:50;;;;;;;;;;;19.70;99.90;;;;;;5145898;27;19927;-75
2022/07/08 07:41:15;;;;;;;;;;;19.70;99.90;;;;;;5143491;27;20068;-77
2022/07/08 07:43:41;;;;;;;;;;;19.80;99.90;;;;;;5147059;27;19938;-75
2022/07/08 07:46:06;;;;;;;;;;;19.70;99.90;;;;;;5143415;27;20012;-76
2022/07/08 07:48:32;;;;;;;;;;;19.90;99.90;;;;;;5142433;27;20316;-77
2022/07/08 07:50:57;;;;;;;;;;;19.90;99.90;;;;;;5142502;27;20443;-75
2022/07/08 07:53:24;;;;;;;;;;;20.00;99.90;;;;;;5141855;27;19924;-74
2022/07/08 07:55:50;;;;;;;;;;;20.00;99.90;;;;;;5143223;27;19923;-75
2022/07/08 07:58:15;;;;;;;;;;;20.00;99.90;;;;;;5140054;27;19927;-76
2022/07/08 08:00:41;;;;;;;;;;;20.00;99.90;;;;;;5142973;27;19987;-76
2022/07/08 08:03:06;;;;;;;;;;;20.10;99.90;;;;;;5139824;27;19992;-75
2022/07/08 08:05:32;;;;;;;;;;;20.10;99.90;;;;;;5143340;27;19935;-78
2022/07/08 08:07:57;;;;;;;;;;;20.10;99.90;;;;;;5140956;27;19923;-77
2022/07/08 08:10:23;;;;;;;;;;;20.30;99.90;;;;;;5137641;27;19930;-75
2022/07/08 08:12:49;;;;;;;;;;;20.30;99.90;;;;;;5143347;27;19934;-75
2022/07/08 08:15:14;;;;;;;;;;;20.40;99.90;;;;;;5140357;27;20259;-74
2022/07/08 08:17:41;;;;;;;;;;;20.50;99.90;;;;;;5132647;27;19971;-77
2022/07/08 08:20:07;;;;;;;;;;;20.50;99.90;;;;;;5129830;27;19966;-84
2022/07/08 08:22:33;;;;;;;;;;;20.60;99.90;;;;;;5143307;27;19930;-77
2022/07/08 08:24:59;;;;;;;;;;;20.60;99.90;;;;;;5144905;27;19927;-83
2022/07/08 08:27:24;;;;;;;;;;;20.70;99.90;;;;;;5145235;27;19923;-83
2022/07/08 08:29:50;;;;;;;;;;;20.80;99.90;;;;;;5135043;27;19957;-82
2022/07/08 08:32:15;;;;;;;;;;;21.00;99.90;;;;;;5146735;27;19968;-80
2022/07/08 08:34:41;;;;;;;;;;;21.20;99.90;;;;;;5141635;27;20361;-81
2022/07/08 08:37:07;;;;;;;;;;;21.30;99.90;;;;;;5143713;27;19930;-80
2022/07/08 08:39:32;;;;;;;;;;;21.50;99.90;;;;;;5140559;27;20340;-78
2022/07/08 08:41:58;;;;;;;;;;;21.40;99.90;;;;;;5135318;27;19923;-79
2022/07/08 08:44:24;;;;;;;;;;;21.30;99.90;;;;;;5138458;27;20014;-77
2022/07/08 08:46:51;;;;;;;;;;;21.40;99.90;;;;;;5132624;27;19923;-77
2022/07/08 08:49:18;;;;;;;;;;;21.50;99.90;;;;;;5137577;27;19937;-77
2022/07/08 08:51:47;;;;;;;;;;;21.50;99.70;;;;;;5137079;27;19924;-78
2022/07/08 08:54:13;;;;;;;;;;;21.80;99.90;;;;;;5135798;27;19967;-75
2022/07/08 08:56:39;;;;;;;;;;;21.80;99.90;;;;;;5136120;27;20016;-76
2022/07/08 08:59:05;;;;;;;;;;;22.00;99.90;;;;;;5144064;27;19920;-74
2022/07/08 09:01:32;;;;;;;;;;;22.40;99.90;;;;;;5143409;27;20385;-75
2022/07/08 09:03:58;;;;;;;;;;;22.60;99.90;;;;;;5146727;27;19923;-72
2022/07/08 09:06:24;;;;;;;;;;;22.80;99.10;;;;;;5136520;27;20305;-74
2022/07/08 09:08:50;;;;;;;;;;;22.90;98.80;;;;;;5136387;27;20031;-74
2022/07/08 09:11:17;;;;;;;;;;;23.30;99.40;;;;;;5137660;27;19930;-75
2022/07/08 09:13:42;;;;;;;;;;;23.70;98.20;;;;;;5136343;27;20014;-72
2022/07/08 09:16:08;;;;;;;;;;;24.00;98.20;;;;;;5141402;27;20341;-73
2022/07/08 09:18:35;;;;;;;;;;;24.00;97.00;;;;;;5143178;27;20367;-73
2022/07/08 09:21:01;;;;;;;;;;;24.20;97.10;;;;;;5145418;27;19923;-73
2022/07/08 09:23:28;;;;;;;;;;;24.20;97.30;;;;;;5138876;27;20276;-72
2022/07/08 09:25:56;;;;;;;;;;;24.70;98.00;;;;;;5147100;27;20389;-73
2022/07/08 09:28:35;;;;;;;;;;;24.70;97.00;;;;;;5143049;27;19927;-72
2022/07/08 09:31:02;;;;;;;;;;;24.90;97.10;;;;;;5136608;27;19958;-73
2022/07/08 09:33:27;;;;;;;;;;;24.90;97.50;;;;;;5145601;27;20262;-73
2022/07/08 09:35:55;;;;;;;;;;;24.80;97.70;;;;;;5143159;27;19930;-73
2022/07/08 09:38:21;;;;;;;;;;;24.80;98.20;;;;;;5145180;27;19923;-72
2022/07/08 09:41:00;;;;;;;;;;;24.90;97.70;;;;;;5144294;27;19991;-71
2022/07/08 09:43:26;;;;;;;;;;;25.00;98.40;;;;;;5137118;27;19963;-73
2022/07/08 09:45:52;;;;;;;;;;;25.10;98.00;;;;;;5136848;27;19934;-72
2022/07/08 09:48:18;;;;;;;;;;;24.80;98.00;;;;;;5148499;27;19923;-72
2022/07/08 09:50:44;;;;;;;;;;;24.80;98.20;;;;;;5138590;27;19978;-73
2022/07/08 09:53:11;;;;;;;;;;;25.00;98.60;;;;;;5162554;27;20278;-73
2022/07/08 09:55:37;;;;;;;;;;;24.80;98.30;;;;;;5139480;27;20366;-75
2022/07/08 09:58:04;;;;;;;;;;;24.70;98.60;;;;;;5146286;27;20298;-74
2022/07/08 10:00:29;;;;;;;;;;;24.80;98.70;;;;;;5144802;27;20362;-77
2022/07/08 10:02:55;;;;;;;;;;;24.60;98.60;;;;;;5146974;27;19923;-77
2022/07/08 10:05:21;;;;;;;;;;;24.40;98.60;;;;;;5159697;27;20287;-74
2022/07/08 10:07:46;;;;;;;;;;;24.20;99.10;;;;;;5138183;27;19944;-74
2022/07/08 10:10:12;;;;;;;;;;;24.30;98.80;;;;;;5137988;27;20282;-78
2022/07/08 10:12:41;;;;;;;;;;;24.10;99.30;;;;;;5156981;27;19923;-77
2022/07/08 10:15:10;;;;;;;;;;;24.20;99.40;;;;;;5162266;27;20025;-78
2022/07/08 10:17:40;;;;;;;;;;;24.50;99.40;;;;;;5146779;27;19969;-75
2022/07/08 10:20:06;;;;;;;;;;;24.70;98.80;;;;;;5145931;27;20013;-76
2022/07/08 10:22:32;;;;;;;;;;;24.80;98.70;;;;;;5164409;27;19926;-79
2022/07/08 10:25:02;;;;;;;;;;;24.60;99.00;;;;;;5135479;27;19930;-78
2022/07/08 10:27:28;;;;;;;;;;;24.70;98.80;;;;;;5145526;27;19967;-77
2022/07/08 10:30:11;;;;;;;;;;;24.40;98.90;;;;;;5144003;27;20336;-78
2022/07/08 10:32:37;;;;;;;;;;;24.20;99.30;;;;;;5145335;27;20381;-78
2022/07/08 10:35:06;;;;;;;;;;;23.80;99.90;;;;;;5164056;27;19931;-78
2022/07/08 10:37:44;;;;;;;;;;;23.50;99.90;;;;;;5163496;27;19922;-78
2022/07/08 10:40:11;;;;;;;;;;;23.30;99.90;;;;;;5136068;27;19979;-80
2022/07/08 10:42:37;;;;;;;;;;;23.10;99.90;;;;;;5144012;27;19919;-77
2022/07/08 10:45:02;;;;;;;;;;;22.90;99.90;;;;;;5146237;27;20029;-76
2022/07/08 10:47:28;;;;;;;;;;;22.70;99.90;;;;;;5145245;27;19930;-76
2022/07/08 10:50:01;;;;;;;;;;;22.50;99.90;;;;;;5144778;27;19923;-77
2022/07/08 10:52:31;;;;;;;;;;;22.70;99.90;;;;;;5143107;27;19992;-75
2022/07/08 10:55:12;;;;;;;;;;;22.90;99.90;;;;;;5163753;27;19926;-76
2022/07/08 10:57:38;;;;;;;;;;;23.10;99.90;;;;;;5147565;27;19922;-75
2022/07/08 11:00:11;;;;;;;;;;;23.10;99.90;;;;;;5144416;27;19919;-75
2022/07/08 11:02:40;;;;;;;;;;;23.10;99.90;;;;;;5165503;27;19930;-77
2022/07/08 11:05:06;;;;;;;;;;;23.00;99.90;;;;;;5144124;27;19930;-75
2022/07/08 11:07:33;;;;;;;;;;;23.20;99.90;;;;;;5157405;27;19923;-76
2022/07/08 11:10:03;;;;;;;;;;;23.50;99.90;;;;;;5162976;27;20290;-75
2022/07/08 11:12:29;;;;;;;;;;;23.60;99.90;;;;;;5145962;27;19967;-78
2022/07/08 11:14:56;;;;;;;;;;;23.60;99.90;;;;;;5163987;27;19923;-77
2022/07/08 11:17:32;;;;;;;;;;;23.90;99.90;;;;;;5145134;27;20357;-76
2022/07/08 11:19:59;;;;;;;;;;;24.30;99.90;;;;;;5144884;27;19923;-78
2022/07/08 11:22:25;;;;;;;;;;;24.20;99.90;;;;;;5158993;27;19930;-75
2022/07/08 11:24:51;;;;;;;;;;;24.00;99.90;;;;;;5145699;27;20370;-73
2022/07/08 11:27:21;;;;;;;;;;;24.50;99.90;;;;;;5144738;27;19923;-73
2022/07/08 11:29:48;;;;;;;;;;;25.10;99.90;;;;;;5164602;27;19923;-75
2022/07/08 11:32:14;;;;;;;;;;;25.10;99.90;;;;;;5143941;27;20327;-73
2022/07/08 11:34:39;;;;;;;;;;;25.20;99.50;;;;;;5146770;27;19922;-74
2022/07/08 11:37:05;;;;;;;;;;;25.40;99.50;;;;;;5140254;27;19923;-71
2022/07/08 11:39:30;;;;;;;;;;;25.60;99.40;;;;;;5165205;27;20381;-72
2022/07/08 11:41:56;;;;;;;;;;;25.50;99.20;;;;;;5144504;27;19923;-70
2022/07/08 11:44:28;;;;;;;;;;;25.40;98.70;;;;;;5144532;27;20275;-68
2022/07/08 11:46:54;;;;;;;;;;;25.30;99.60;;;;;;5144389;27;19922;-70
2022/07/08 11:49:20;;;;;;;;;;;25.60;99.20;;;;;;5144695;27;19972;-69
2022/07/08 11:51:49;;;;;;;;;;;25.70;98.80;;;;;;5161103;27;19927;-70
2022/07/08 11:54:15;;;;;;;;;;;25.60;98.90;;;;;;5145195;27;19922;-70
2022/07/08 11:56:41;;;;;;;;;;;25.70;98.70;;;;;;5162725;27;20111;-69
2022/07/08 11:59:07;;;;;;;;;;;25.80;99.30;;;;;;5167424;27;19955;-71
2022/07/08 12:01:33;;;;;;;;;;;26.00;98.60;;;;;;5147386;27;19930;-71
2022/07/08 12:03:59;;;;;;;;;;;26.40;98.30;;;;;;5145981;27;19954;-71
2022/07/08 12:06:26;;;;;;;;;;;26.10;98.40;;;;;;5147206;27;19966;-70
2022/07/08 12:08:51;;;;;;;;;;;26.40;98.40;;;;;;5149464;27;20446;-73
2022/07/08 12:11:18;;;;;;;;;;;26.40;98.40;;;;;;5148307;27;19922;-73
2022/07/08 12:13:48;;;;;;;;;;;26.70;98.10;;;;;;5149736;27;19957;-71
2022/07/08 12:16:33;;;;;;;;;;;26.60;97.50;;;;;;5146132;27;19919;-74
2022/07/08 12:18:59;;;;;;;;;;;26.90;97.90;;;;;;5141161;27;20347;-75
2022/07/08 12:21:28;;;;;;;;;;;27.00;97.40;;;;;;5164823;27;19919;-75
2022/07/08 12:23:54;;;;;;;;;;;26.90;97.70;;;;;;5166272;27;19949;-74
2022/07/08 12:26:24;;;;;;;;;;;26.70;97.40;;;;;;5147461;27;20067;-75
2022/07/08 12:28:49;;;;;;;;;;;26.90;97.60;;;;;;5149658;27;20014;-75
2022/07/08 12:31:34;;;;;;;;;;;26.70;97.90;;;;;;5145465;27;20021;-73
2022/07/08 12:34:03;;;;;;;;;;;26.60;97.20;;;;;;5140646;27;19923;-72
2022/07/08 12:36:29;;;;;;;;;;;26.80;97.70;;;;;;5168372;27;19964;-73
2022/07/08 12:38:54;;;;;;;;;;;27.00;97.90;;;;;;5160673;27;19923;-73
2022/07/08 12:41:20;;;;;;;;;;;27.10;97.60;;;;;;5168310;27;19930;-72
2022/07/08 12:43:46;;;;;;;;;;;27.20;96.60;;;;;;5166399;27;19923;-73
2022/07/08 12:46:11;;;;;;;;;;;26.90;96.90;;;;;;5167322;27;20431;-73
2022/07/08 12:48:37;;;;;;;;;;;26.50;97.60;;;;;;5166768;27;19922;-72
2022/07/08 12:51:03;;;;;;;;;;;26.50;97.60;;;;;;5165686;27;19930;-74
2022/07/08 12:53:29;;;;;;;;;;;26.50;98.10;;;;;;5148172;27;19931;-73
2022/07/08 12:55:54;;;;;;;;;;;26.60;98.50;;;;;;5167932;27;20426;-74
2022/07/08 12:58:24;;;;;;;;;;;26.50;97.90;;;;;;5146914;27;19959;-74
2022/07/08 13:00:52;;;;;;;;;;;26.90;97.80;;;;;;5160435;27;19962;-74
2022/07/08 13:03:18;;;;;;;;;;;26.80;97.40;;;;;;5149890;27;19923;-74
2022/07/08 13:05:46;;;;;;;;;;;26.70;97.70;;;;;;5147425;27;19979;-74
2022/07/08 13:08:12;;;;;;;;;;;26.30;98.20;;;;;;5148285;27;19927;-74
2022/07/08 13:10:37;;;;;;;;;;;25.90;97.70;;;;;;5147727;27;20288;-74
2022/07/08 13:13:06;;;;;;;;;;;25.90;98.20;;;;;;5146376;27;19972;-74
2022/07/08 13:15:35;;;;;;;;;;;25.60;98.50;;;;;;5165880;27;19927;-73
2022/07/08 13:18:00;;;;;;;;;;;25.60;98.90;;;;;;5148171;27;19922;-74
2022/07/08 13:20:26;;;;;;;;;;;25.90;98.70;;;;;;5165420;27;20009;-74
2022/07/08 13:22:51;;;;;;;;;;;25.80;98.70;;;;;;5167501;27;19926;-74
2022/07/08 13:25:17;;;;;;;;;;;25.90;98.70;;;;;;5146135;27;19923;-74
2022/07/08 13:27:44;;;;;;;;;;;25.80;98.40;;;;;;5168359;27;19945;-74
2022/07/08 13:30:13;;;;;;;;;;;25.70;98.90;;;;;;5164108;27;19931;-73
2022/07/08 13:32:39;;;;;;;;;;;25.70;98.60;;;;;;5154114;27;21437;-75
2022/07/08 13:35:04;;;;;;;;;;;25.70;98.90;;;;;;5146543;27;20093;-75
2022/07/08 13:37:30;;;;;;;;;;;25.50;98.60;;;;;;5145533;27;19923;-75
2022/07/08 13:39:56;;;;;;;;;;;25.60;98.90;;;;;;5165113;27;20443;-76
2022/07/08 13:42:21;;;;;;;;;;;25.70;98.90;;;;;;5167941;27;19931;-75
2022/07/08 13:44:47;;;;;;;;;;;25.70;98.80;;;;;;5163830;27;20412;-75
2022/07/08 13:47:13;;;;;;;;;;;25.70;99.00;;;;;;5162707;27;20768;-75
2022/07/08 13:49:38;;;;;;;;;;;25.90;99.30;;;;;;5164941;27;20010;-75
2022/07/08 13:52:04;;;;;;;;;;;26.10;99.10;;;;;;5165884;27;19923;-75
2022/07/08 13:54:29;;;;;;;;;;;26.40;98.80;;;;;;5144552;27;19930;-77
2022/07/08 13:56:55;;;;;;;;;;;26.90;98.70;;;;;;5166196;27;20009;-76
2022/07/08 13:59:20;;;;;;;;;;;27.10;97.60;;;;;;5145871;27;19955;-77
2022/07/08 14:01:46;;;;;;;;;;;27.10;97.60;;;;;;5148258;27;19927;-77
2022/07/08 14:04:11;;;;;;;;;;;26.50;96.90;;;;;;5145003;27;19923;-77
2022/07/08 14:06:37;;;;;;;;;;;26.20;97.40;;;;;;5148851;27;20412;-77
2022/07/08 14:09:03;;;;;;;;;;;25.90;97.40;;;;;;5163967;27;20350;-76
2022/07/08 14:11:28;;;;;;;;;;;25.70;98.20;;;;;;5164625;27;19931;-83
2022/07/08 14:13:54;;;;;;;;;;;25.80;98.10;;;;;;5164929;27;19954;-80